Time;durP1;ratioP1;P1;durP2;ratioP2;P2;SDS_P1;SDS_P2;PMS_P1;PMS_P2;Temp;Humidity;BMP_temperature;BMP_pressure;BME280_temperature;BME280_humidity;BME280_pressure;Samples;Min_cycle;Max_cycle;Signal;HPM_P1;HPM_P2
2022/01/02 00:00:28;;;;;;;7.45;4.35;;;10.40;99.90;;;;;;5114680;28;20177;-52
2022/01/02 00:03:01;;;;;;;7.38;3.97;;;10.40;99.90;;;;;;5115866;28;20252;-53
2022/01/02 00:05:32;;;;;;;5.90;4.15;;;10.40;99.90;;;;;;5116021;28;20556;-49
2022/01/02 00:08:04;;;;;;;7.63;4.18;;;10.40;99.90;;;;;;5115555;28;20233;-48
2022/01/02 00:10:34;;;;;;;5.95;3.92;;;10.40;99.90;;;;;;5115337;28;20164;-49
2022/01/02 00:13:01;;;;;;;5.88;4.32;;;10.40;99.90;;;;;;5115396;28;20330;-55
2022/01/02 00:15:27;;;;;;;6.93;4.00;;;10.40;99.90;;;;;;5115942;28;20164;-53
2022/01/02 00:17:55;;;;;;;7.25;4.45;;;11.40;99.90;;;;;;5115566;28;20532;-49
2022/01/02 00:20:35;;;;;;;9.35;4.47;;;10.40;99.90;;;;;;5115481;28;20175;-49
2022/01/02 00:23:06;;;;;;;4.93;3.78;;;10.40;99.90;;;;;;5115427;28;20196;-55
2022/01/02 00:25:41;;;;;;;9.38;4.70;;;10.30;99.90;;;;;;5096964;28;20208;-55
2022/01/02 00:28:07;;;;;;;5.72;3.95;;;10.30;99.90;;;;;;5115344;28;20160;-52
2022/01/02 00:30:33;;;;;;;6.25;4.40;;;10.30;99.90;;;;;;5115244;28;20521;-52
2022/01/02 00:33:00;;;;;;;5.50;4.05;;;10.30;99.90;;;;;;5115281;28;20169;-52
2022/01/02 00:35:26;;;;;;;6.57;4.53;;;10.30;99.90;;;;;;5115533;28;20632;-52
2022/01/02 00:37:52;;;;;;;6.20;3.97;;;10.30;99.90;;;;;;5115224;28;20177;-49
2022/01/02 00:40:18;;;;;;;4.80;3.67;;;10.40;99.90;;;;;;5115124;28;20199;-48
2022/01/02 00:42:43;;;;;;;6.45;4.22;;;10.30;99.90;;;;;;5115080;28;20208;-51
2022/01/02 00:45:20;;;;;;;6.25;3.88;;;10.30;99.90;;;;;;5114947;28;20168;-50
2022/01/02 00:48:07;;;;;;;5.85;4.50;;;10.30;99.90;;;;;;5115045;28;20173;-50
2022/01/02 00:50:47;;;;;;;8.95;3.95;;;10.30;99.90;;;;;;5115169;28;20217;-52
2022/01/02 00:53:17;;;;;;;6.20;4.18;;;10.30;99.90;;;;;;5114933;28;20164;-50
2022/01/02 00:55:45;;;;;;;6.93;5.10;;;10.30;99.90;;;;;;5114822;28;20628;-53
2022/01/02 00:58:13;;;;;;;6.82;4.45;;;10.40;99.90;;;;;;5114787;28;20164;-52
2022/01/02 01:00:44;;;;;;;5.90;4.50;;;10.40;99.90;;;;;;5114767;28;20165;-50
2022/01/02 01:03:10;;;;;;;8.38;4.18;;;10.40;99.90;;;;;;5114380;28;20696;-48
2022/01/02 01:05:37;;;;;;;7.43;4.72;;;10.40;99.90;;;;;;5114880;28;20197;-48
2022/01/02 01:08:08;;;;;;;6.18;4.00;;;10.40;99.90;;;;;;5114591;28;20179;-49
2022/01/02 01:10:38;;;;;;;5.35;4.03;;;10.40;99.90;;;;;;5114564;28;20213;-49
2022/01/02 01:13:06;;;;;;;5.43;3.90;;;10.40;99.90;;;;;;5114779;28;20188;-48
2022/01/02 01:15:33;;;;;;;6.03;4.13;;;10.40;99.90;;;;;;5114463;28;20215;-49
2022/01/02 01:18:01;;;;;;;6.18;3.55;;;10.40;99.90;;;;;;5114708;28;20519;-49
2022/01/02 01:20:30;;;;;;;5.03;3.92;;;10.40;99.90;;;;;;5114878;28;20168;-50
2022/01/02 01:22:56;;;;;;;6.60;4.30;;;10.40;99.90;;;;;;5114570;28;20161;-49
2022/01/02 01:25:23;;;;;;;6.90;4.05;;;10.40;99.90;;;;;;5114177;28;20197;-49
2022/01/02 01:27:50;;;;;;;5.55;4.03;;;10.50;99.90;;;;;;5114186;28;20194;-49
2022/01/02 01:30:18;;;;;;;5.38;3.67;;;10.50;99.90;;;;;;5114160;28;20160;-49
2022/01/02 01:32:45;;;;;;;4.43;3.40;;;10.50;99.90;;;;;;5114376;28;20225;-48
2022/01/02 01:35:11;;;;;;;6.95;4.60;;;10.50;99.90;;;;;;5114123;28;20168;-50
2022/01/02 01:37:38;;;;;;;7.25;3.63;;;10.50;99.90;;;;;;5114002;28;20169;-49
2022/01/02 01:40:05;;;;;;;7.10;3.80;;;10.60;99.90;;;;;;5113887;28;20169;-49
2022/01/02 01:42:37;;;;;;;4.68;3.65;;;10.40;99.90;;;;;;5114028;28;20192;-48
2022/01/02 01:47:46;;;;;;;6.30;3.85;;;10.50;99.90;;;;;;5113774;28;20532;-48
2022/01/02 01:50:12;;;;;;;8.13;4.18;;;10.60;99.90;;;;;;5113814;28;20217;-49
2022/01/02 01:52:39;;;;;;;9.70;4.15;;;10.60;99.90;;;;;;5113876;28;20264;-49
2022/01/02 01:55:06;;;;;;;5.88;3.60;;;10.60;99.90;;;;;;5113632;28;20180;-49
2022/01/02 01:57:32;;;;;;;8.55;4.57;;;10.60;99.90;;;;;;5113533;28;20561;-49
2022/01/02 01:59:58;;;;;;;5.70;3.75;;;10.60;99.90;;;;;;5113624;28;20647;-49
2022/01/02 02:02:23;;;;;;;8.73;4.10;;;10.60;99.90;;;;;;5113849;28;20173;-48
2022/01/02 02:04:49;;;;;;;5.43;3.85;;;10.60;99.90;;;;;;5113448;28;20634;-49
2022/01/02 02:07:15;;;;;;;7.55;4.05;;;10.60;99.90;;;;;;5113286;28;20211;-49
2022/01/02 02:12:22;;;;;;;6.18;3.70;;;10.60;99.90;;;;;;5113184;28;20220;-51
2022/01/02 02:14:48;;;;;;;5.32;3.78;;;10.60;99.90;;;;;;5112656;28;20167;-55
2022/01/02 02:17:13;;;;;;;9.65;4.00;;;10.60;99.90;;;;;;5113418;28;20165;-50
2022/01/02 02:19:39;;;;;;;5.72;4.43;;;10.50;99.90;;;;;;5113257;28;20199;-50
2022/01/02 02:22:06;;;;;;;6.22;4.50;;;10.60;99.90;;;;;;5113183;28;20172;-51
2022/01/02 02:24:32;;;;;;;4.63;3.95;;;10.60;99.90;;;;;;5113403;28;20183;-55
2022/01/02 02:26:58;;;;;;;7.28;4.72;;;10.60;99.90;;;;;;5113069;28;20578;-55
2022/01/02 02:29:23;;;;;;;7.20;4.60;;;10.60;99.90;;;;;;5113371;28;20198;-52
2022/01/02 02:31:53;;;;;;;6.13;4.20;;;10.50;99.90;;;;;;5112963;28;20161;-49
2022/01/02 02:34:19;;;;;;;9.30;4.70;;;10.50;99.90;;;;;;5113004;28;20663;-52
2022/01/02 02:36:45;;;;;;;5.88;4.63;;;10.50;99.90;;;;;;5112877;28;20207;-50
2022/01/02 02:39:11;;;;;;;5.25;4.30;;;10.60;99.90;;;;;;5112968;28;20188;-49
2022/01/02 02:41:38;;;;;;;7.35;4.20;;;10.50;99.90;;;;;;5112920;28;20172;-49
2022/01/02 02:44:15;;;;;;;6.78;3.92;;;10.50;99.90;;;;;;5113022;28;20172;-51
2022/01/02 02:49:25;;;;;;;8.75;5.10;;;10.50;99.90;;;;;;5113324;28;20229;-49
2022/01/02 02:51:54;;;;;;;9.50;5.30;;;10.50;99.90;;;;;;5112768;28;20557;-49
2022/01/02 02:54:26;;;;;;;5.45;4.78;;;10.40;99.90;;;;;;5112701;28;20186;-50
2022/01/02 02:56:59;;;;;;;7.28;5.15;;;10.40;99.90;;;;;;5112980;28;20255;-50
2022/01/02 02:59:30;;;;;;;7.25;5.30;;;10.50;99.90;;;;;;5113155;28;20194;-50
2022/01/02 03:01:56;;;;;;;6.95;4.85;;;10.50;99.90;;;;;;5113032;28;20216;-50
2022/01/02 03:04:23;;;;;;;6.93;4.45;;;10.50;99.90;;;;;;5112749;28;20243;-50
2022/01/02 03:06:49;;;;;;;11.60;5.25;;;10.50;99.90;;;;;;5112107;28;20211;-55
2022/01/02 03:09:17;;;;;;;7.22;5.20;;;10.50;99.90;;;;;;5112484;28;20169;-54
2022/01/02 03:11:43;;;;;;;6.55;4.97;;;10.50;99.90;;;;;;5112349;28;20232;-51
2022/01/02 03:14:11;;;;;;;9.25;5.57;;;10.50;99.90;;;;;;5112490;28;20273;-51
2022/01/02 03:16:38;;;;;;;6.75;5.55;;;10.50;99.90;;;;;;5112388;28;20175;-54
2022/01/02 03:19:04;;;;;;;8.10;4.80;;;10.50;99.90;;;;;;5112314;28;20257;-50
2022/01/02 03:21:30;;;;;;;7.15;5.00;;;10.50;99.90;;;;;;5112417;28;20172;-50
2022/01/02 03:23:55;;;;;;;7.32;5.38;;;10.50;99.90;;;;;;5112729;28;20160;-56
2022/01/02 03:26:21;;;;;;;6.03;4.60;;;10.50;99.90;;;;;;5115968;28;20326;-55
2022/01/02 03:28:47;;;;;;;7.78;5.53;;;10.50;99.90;;;;;;5116753;28;20165;-48
2022/01/02 03:31:13;;;;;;;6.00;5.05;;;10.50;99.90;;;;;;5116561;28;20623;-51
2022/01/02 03:33:39;;;;;;;7.53;5.35;;;10.50;99.90;;;;;;5116520;28;20659;-53
2022/01/02 03:36:05;;;;;;;8.00;5.47;;;10.50;99.90;;;;;;5116433;28;20192;-50
2022/01/02 03:38:32;;;;;;;7.78;5.60;;;10.50;99.90;;;;;;5116455;28;20217;-49
2022/01/02 03:40:57;;;;;;;9.10;5.70;;;10.50;99.90;;;;;;5116568;28;20172;-48
2022/01/02 03:43:23;;;;;;;6.85;5.40;;;10.50;99.90;;;;;;5116636;28;20177;-51
2022/01/02 03:45:49;;;;;;;7.07;5.18;;;10.50;99.90;;;;;;5116146;28;20247;-51
2022/01/02 03:48:15;;;;;;;9.77;5.43;;;10.50;99.90;;;;;;5116140;28;20179;-51
2022/01/02 03:50:41;;;;;;;9.80;5.80;;;10.50;99.90;;;;;;5116110;28;20192;-51
2022/01/02 03:53:07;;;;;;;9.05;5.25;;;10.50;99.90;;;;;;5116085;28;20176;-51
2022/01/02 03:55:33;;;;;;;8.57;4.85;;;10.60;99.90;;;;;;5097848;28;20231;-49
2022/01/02 03:57:59;;;;;;;7.10;5.22;;;10.60;99.90;;;;;;5115988;28;20222;-49
2022/01/02 04:00:25;;;;;;;6.55;4.43;;;10.60;99.90;;;;;;5116339;28;20173;-49
2022/01/02 04:02:51;;;;;;;7.45;5.28;;;10.50;99.90;;;;;;5115956;28;20502;-52
2022/01/02 04:05:16;;;;;;;7.60;5.22;;;10.60;99.90;;;;;;5115766;28;20197;-48
2022/01/02 04:07:43;;;;;;;8.23;5.07;;;10.60;99.90;;;;;;5116082;28;20247;-49
2022/01/02 04:10:11;;;;;;;8.23;5.55;;;10.50;99.90;;;;;;5115917;28;20161;-49
2022/01/02 04:12:37;;;;;;;7.35;5.88;;;10.60;99.90;;;;;;5115396;28;20224;-49
2022/01/02 04:15:06;;;;;;;8.95;5.95;;;10.50;99.90;;;;;;5115992;28;20183;-49
2022/01/02 04:17:33;;;;;;;7.88;5.82;;;10.60;99.90;;;;;;5115548;28;20629;-49
2022/01/02 04:19:59;;;;;;;8.88;6.68;;;10.50;99.90;;;;;;5115808;28;20199;-49
2022/01/02 04:22:25;;;;;;;8.80;6.28;;;10.50;99.90;;;;;;5115887;28;20221;-49
2022/01/02 04:24:50;;;;;;;8.40;6.20;;;10.50;99.90;;;;;;5115725;28;20195;-52
2022/01/02 04:27:18;;;;;;;9.27;6.15;;;10.50;99.90;;;;;;5115448;28;20196;-53
2022/01/02 04:29:44;;;;;;;9.70;5.90;;;10.50;99.90;;;;;;5115673;28;20177;-51
2022/01/02 04:32:09;;;;;;;7.50;5.55;;;10.60;99.90;;;;;;5115573;28;20520;-48
2022/01/02 04:34:35;;;;;;;9.32;6.38;;;10.50;99.90;;;;;;5115294;28;20161;-49
2022/01/02 04:37:01;;;;;;;9.73;5.95;;;10.60;99.90;;;;;;5114611;28;20647;-49
2022/01/02 04:39:26;;;;;;;9.40;6.25;;;10.60;99.90;;;;;;5115548;28;20172;-48
2022/01/02 04:41:52;;;;;;;13.43;6.28;;;10.60;99.90;;;;;;5115350;28;20160;-49
2022/01/02 04:44:17;;;;;;;7.07;5.95;;;10.60;99.90;;;;;;5115377;28;20194;-49
2022/01/02 04:46:43;;;;;;;9.30;6.28;;;10.60;99.90;;;;;;5114965;28;20560;-49
2022/01/02 04:49:08;;;;;;;8.45;6.25;;;10.60;99.90;;;;;;5115100;28;20157;-53
2022/01/02 04:51:34;;;;;;;9.70;6.05;;;10.60;99.90;;;;;;5114943;28;20196;-51
2022/01/02 04:54:00;;;;;;;11.30;7.05;;;10.60;99.90;;;;;;5114970;28;20567;-55
2022/01/02 04:56:25;;;;;;;8.55;5.97;;;10.60;99.90;;;;;;5115449;28;20191;-50
2022/01/02 04:58:51;;;;;;;14.27;6.95;;;10.50;99.90;;;;;;5114809;28;20681;-51
2022/01/02 05:01:17;;;;;;;9.45;6.88;;;10.50;99.90;;;;;;5114728;28;20169;-49
2022/01/02 05:03:43;;;;;;;9.55;6.88;;;10.50;99.90;;;;;;5114750;28;20172;-48
2022/01/02 05:06:09;;;;;;;9.15;6.15;;;10.60;99.90;;;;;;5114635;28;20637;-55
2022/01/02 05:08:35;;;;;;;9.35;6.65;;;10.50;99.90;;;;;;5114615;28;20165;-56
2022/01/02 05:11:01;;;;;;;9.23;7.00;;;10.50;99.90;;;;;;5114563;28;20619;-53
2022/01/02 05:13:26;;;;;;;10.70;6.60;;;10.50;99.90;;;;;;5114831;28;20183;-49
2022/01/02 05:15:52;;;;;;;9.70;6.35;;;10.50;99.90;;;;;;5114632;28;20168;-52
2022/01/02 05:18:17;;;;;;;12.68;6.88;;;10.50;99.90;;;;;;5114417;28;20164;-53
2022/01/02 05:20:46;;;;;;;7.75;6.50;;;10.50;99.90;;;;;;5114310;28;20522;-55
2022/01/02 05:23:16;;;;;;;7.85;6.75;;;10.50;99.90;;;;;;5114355;28;20161;-61
2022/01/02 05:25:42;;;;;;;11.77;7.55;;;10.50;99.90;;;;;;5114189;28;20188;-60
2022/01/02 05:28:09;;;;;;;9.68;6.88;;;10.50;99.90;;;;;;5114479;28;20520;-62
2022/01/02 05:30:36;;;;;;;10.55;7.10;;;10.50;99.90;;;;;;5114239;28;20160;-62
2022/01/02 05:33:02;;;;;;;12.50;7.20;;;10.50;99.90;;;;;;5095920;28;20168;-63
2022/01/02 05:35:29;;;;;;;12.15;6.97;;;10.50;99.90;;;;;;5114028;28;20181;-62
2022/01/02 05:37:55;;;;;;;12.63;6.80;;;10.40;99.90;;;;;;5114285;28;20526;-63
2022/01/02 05:40:21;;;;;;;13.10;6.90;;;10.40;99.90;;;;;;5114033;28;20161;-63
2022/01/02 05:42:46;;;;;;;10.45;7.68;;;10.40;99.90;;;;;;5113952;28;20663;-63
2022/01/02 05:45:12;;;;;;;11.43;6.78;;;10.40;99.90;;;;;;5113813;28;20259;-63
2022/01/02 05:47:38;;;;;;;9.50;6.35;;;10.40;99.90;;;;;;5113550;28;20172;-62
2022/01/02 05:50:05;;;;;;;8.75;6.78;;;10.40;99.90;;;;;;5113159;28;20628;-62
2022/01/02 05:52:31;;;;;;;10.50;6.53;;;10.40;99.90;;;;;;5113986;28;20172;-62
2022/01/02 05:54:57;;;;;;;9.77;6.75;;;10.40;99.90;;;;;;5114242;28;20165;-56
2022/01/02 05:57:23;;;;;;;8.95;6.10;;;10.40;99.90;;;;;;5114031;28;20577;-59
2022/01/02 05:59:49;;;;;;;11.25;5.93;;;10.50;99.90;;;;;;5113572;28;20243;-62
2022/01/02 06:02:14;;;;;;;11.75;6.45;;;10.40;99.90;;;;;;5113540;28;20167;-60
2022/01/02 06:04:40;;;;;;;10.90;5.97;;;10.50;99.90;;;;;;5095215;28;20260;-63
2022/01/02 06:07:05;;;;;;;10.40;6.38;;;10.50;99.90;;;;;;5113363;28;20222;-63
2022/01/02 06:09:31;;;;;;;9.40;6.35;;;10.40;99.90;;;;;;5113615;28;20298;-62
2022/01/02 06:11:56;;;;;;;11.40;6.38;;;10.50;99.90;;;;;;5113481;28;20220;-54
2022/01/02 06:14:22;;;;;;;10.77;6.22;;;10.50;99.90;;;;;;5113710;28;20168;-61
2022/01/02 06:16:47;;;;;;;7.70;5.78;;;10.50;99.90;;;;;;5113326;28;20173;-49
2022/01/02 06:19:13;;;;;;;11.00;6.10;;;10.50;99.90;;;;;;5113126;28;20179;-54
2022/01/02 06:21:39;;;;;;;10.68;5.28;;;10.50;99.90;;;;;;5113227;28;20173;-54
2022/01/02 06:24:04;;;;;;;8.75;5.53;;;10.50;99.90;;;;;;5113406;28;20570;-49
2022/01/02 06:26:30;;;;;;;9.25;5.25;;;10.50;99.90;;;;;;5112988;28;20221;-49
2022/01/02 06:28:55;;;;;;;6.97;4.85;;;10.60;99.90;;;;;;5113373;28;20539;-50
2022/01/02 06:31:21;;;;;;;7.93;5.68;;;10.60;99.90;;;;;;5113018;28;20176;-50
2022/01/02 06:33:46;;;;;;;8.55;4.97;;;10.60;99.90;;;;;;5112988;28;20550;-49
2022/01/02 06:36:12;;;;;;;13.48;5.97;;;10.60;99.90;;;;;;5113029;28;20180;-49
2022/01/02 06:38:37;;;;;;;7.88;5.57;;;10.60;99.90;;;;;;5113190;28;20172;-50
2022/01/02 06:41:03;;;;;;;12.15;5.63;;;10.60;99.90;;;;;;5112859;28;20165;-49
2022/01/02 06:43:31;;;;;;;11.00;5.32;;;10.70;99.90;;;;;;5112820;28;20197;-51
2022/01/02 06:45:56;;;;;;;8.65;5.03;;;10.60;99.90;;;;;;5113036;28;20279;-53
2022/01/02 06:48:22;;;;;;;9.90;4.82;;;10.60;99.90;;;;;;5113225;28;20703;-53
2022/01/02 06:50:47;;;;;;;9.00;5.25;;;10.60;99.90;;;;;;5112718;28;20570;-54
2022/01/02 06:53:13;;;;;;;13.65;5.28;;;10.60;99.90;;;;;;5112691;28;20180;-50
2022/01/02 06:55:38;;;;;;;12.63;5.53;;;10.60;99.90;;;;;;5112924;28;20260;-50
2022/01/02 06:58:06;;;;;;;10.35;4.88;;;10.60;99.90;;;;;;5094371;28;20193;-53
2022/01/02 07:00:31;;;;;;;8.60;5.15;;;10.70;99.90;;;;;;5112668;28;20176;-49
2022/01/02 07:02:57;;;;;;;7.18;4.43;;;10.70;99.90;;;;;;5112614;28;20293;-49
2022/01/02 07:05:22;;;;;;;11.32;5.07;;;10.70;99.90;;;;;;5112769;28;20632;-63
2022/01/02 07:07:48;;;;;;;8.63;4.68;;;10.70;99.90;;;;;;5112570;28;20557;-63
2022/01/02 07:10:15;;;;;;;10.00;4.88;;;10.70;99.90;;;;;;5112435;28;20161;-63
2022/01/02 07:12:41;;;;;;;7.85;4.50;;;10.70;99.90;;;;;;5112740;28;20264;-63
2022/01/02 07:15:08;;;;;;;11.48;5.40;;;10.70;99.90;;;;;;5112665;28;20630;-58
2022/01/02 07:17:34;;;;;;;13.48;4.60;;;10.70;99.90;;;;;;5112328;28;20187;-63
2022/01/02 07:19:59;;;;;;;9.57;4.25;;;10.90;99.90;;;;;;5112616;28;20255;-58
2022/01/02 07:22:25;;;;;;;8.70;4.10;;;10.90;99.90;;;;;;5112738;28;20249;-60
2022/01/02 07:24:51;;;;;;;3.70;3.08;;;11.00;99.90;;;;;;5112323;28;20534;-60
2022/01/02 07:27:20;;;;;;;3.97;3.05;;;11.10;99.90;;;;;;5112573;28;20410;-63
2022/01/02 07:29:47;;;;;;;7.38;4.10;;;11.10;99.90;;;;;;5112539;28;20171;-63
2022/01/02 07:32:14;;;;;;;6.55;3.40;;;11.10;99.90;;;;;;5112514;28;20191;-63
2022/01/02 07:34:39;;;;;;;5.93;3.72;;;11.10;99.90;;;;;;5112245;28;20175;-63
2022/01/02 07:37:05;;;;;;;4.10;3.42;;;11.10;99.90;;;;;;5112518;28;20169;-63
2022/01/02 07:39:31;;;;;;;5.20;3.58;;;11.10;99.90;;;;;;5112229;28;20173;-63
2022/01/02 07:41:56;;;;;;;3.80;3.13;;;11.10;99.90;;;;;;5112106;28;20169;-62
2022/01/02 07:44:22;;;;;;;6.28;3.33;;;11.10;99.90;;;;;;5112028;28;20169;-61
2022/01/02 07:46:47;;;;;;;8.65;3.50;;;11.20;99.90;;;;;;5093998;28;20204;-64
2022/01/02 07:49:13;;;;;;;3.10;2.15;;;11.20;99.90;;;;;;5112186;28;20289;-62
2022/01/02 07:51:38;;;;;;;4.70;2.75;;;11.20;99.90;;;;;;5112251;28;20176;-62
2022/01/02 07:54:04;;;;;;;4.60;2.88;;;11.20;99.90;;;;;;5111716;28;20169;-63
2022/01/02 07:56:30;;;;;;;4.05;2.53;;;11.20;99.90;;;;;;5112112;28;20530;-62
2022/01/02 07:58:57;;;;;;;4.53;2.70;;;11.20;99.90;;;;;;5112420;28;20161;-61
2022/01/02 08:01:23;;;;;;;3.03;2.45;;;11.30;99.90;;;;;;5112434;28;20168;-57
2022/01/02 08:03:48;;;;;;;3.03;2.50;;;11.30;99.90;;;;;;5093376;28;20213;-59
2022/01/02 08:06:14;;;;;;;3.10;2.65;;;11.30;99.90;;;;;;5111798;28;20659;-53
2022/01/02 08:08:39;;;;;;;5.30;2.70;;;11.30;99.90;;;;;;5111775;28;20161;-53
2022/01/02 08:11:05;;;;;;;5.28;2.55;;;11.30;99.90;;;;;;5111823;28;20231;-52
2022/01/02 08:13:30;;;;;;;3.85;2.45;;;11.30;99.90;;;;;;5115209;28;20171;-58
2022/01/02 08:15:56;;;;;;;3.58;2.60;;;11.30;99.90;;;;;;5115965;28;20635;-58
2022/01/02 08:18:22;;;;;;;3.47;2.75;;;11.40;99.90;;;;;;5115628;28;20171;-54
2022/01/02 08:20:47;;;;;;;4.38;2.70;;;11.40;99.90;;;;;;5115554;28;20247;-56
2022/01/02 08:23:14;;;;;;;3.97;2.28;;;11.40;99.90;;;;;;5115739;28;20165;-54
2022/01/02 08:25:39;;;;;;;4.38;2.47;;;11.40;99.90;;;;;;5115238;28;20197;-58
2022/01/02 08:28:06;;;;;;;2.42;2.22;;;11.40;99.90;;;;;;5115400;28;20222;-52
2022/01/02 08:30:31;;;;;;;3.00;2.53;;;11.40;99.90;;;;;;5097007;28;20201;-50
2022/01/02 08:32:57;;;;;;;4.22;2.17;;;11.50;99.90;;;;;;5097377;28;20219;-56
2022/01/02 08:35:23;;;;;;;3.45;2.42;;;11.50;99.90;;;;;;5115562;28;20217;-55
2022/01/02 08:37:48;;;;;;;3.22;2.20;;;11.50;99.90;;;;;;5115463;28;20168;-50
2022/01/02 08:40:14;;;;;;;5.90;2.35;;;11.50;99.90;;;;;;5115124;28;20533;-56
2022/01/02 08:42:39;;;;;;;5.28;2.50;;;11.50;99.90;;;;;;5115162;28;20169;-49
2022/01/02 08:45:06;;;;;;;4.20;2.00;;;11.50;99.90;;;;;;5114926;28;20176;-63
2022/01/02 08:47:31;;;;;;;5.53;2.80;;;11.50;99.90;;;;;;5114932;28;20753;-59
2022/01/02 08:49:57;;;;;;;3.72;2.38;;;11.60;99.90;;;;;;5115000;28;20173;-49
2022/01/02 08:52:25;;;;;;;2.90;2.40;;;11.60;99.90;;;;;;5115207;28;20204;-62
2022/01/02 08:54:50;;;;;;;3.53;2.60;;;11.50;99.90;;;;;;5114805;28;20628;-61
2022/01/02 08:57:16;;;;;;;3.25;2.67;;;11.60;99.90;;;;;;5115097;28;20164;-58
2022/01/02 08:59:42;;;;;;;3.25;2.25;;;11.50;99.90;;;;;;5114836;28;20168;-58
2022/01/02 09:02:07;;;;;;;3.25;2.40;;;11.60;99.90;;;;;;5111207;27;20176;-58
2022/01/02 09:04:33;;;;;;;10.48;2.95;;;11.60;99.90;;;;;;5113358;28;20576;-61
2022/01/02 09:06:58;;;;;;;3.10;2.20;;;11.60;99.90;;;;;;5113134;28;20193;-61
2022/01/02 09:09:24;;;;;;;3.53;2.50;;;11.50;99.90;;;;;;5113923;28;20181;-61
2022/01/02 09:11:51;;;;;;;4.55;2.90;;;11.50;99.90;;;;;;5113050;28;20307;-61
2022/01/02 09:14:16;;;;;;;4.00;2.70;;;11.60;99.90;;;;;;5113254;28;20225;-60
2022/01/02 09:16:44;;;;;;;4.50;2.70;;;11.50;99.90;;;;;;5113171;28;20251;-57
2022/01/02 09:19:10;;;;;;;5.47;2.53;;;11.50;99.90;;;;;;5113319;28;20177;-62
2022/01/02 09:21:36;;;;;;;3.40;2.60;;;11.50;99.90;;;;;;5113436;28;20258;-54
2022/01/02 09:24:01;;;;;;;4.68;2.47;;;11.60;99.90;;;;;;5094569;28;20628;-68
2022/01/02 09:26:27;;;;;;;4.88;2.72;;;11.60;99.90;;;;;;5113230;28;20345;-58
2022/01/02 09:28:53;;;;;;;3.50;2.17;;;11.70;99.90;;;;;;5113130;28;20172;-56
2022/01/02 09:31:18;;;;;;;3.67;2.72;;;11.80;99.90;;;;;;5112869;28;20172;-57
2022/01/02 09:33:44;;;;;;;3.20;2.35;;;11.90;99.90;;;;;;5112806;28;20301;-52
2022/01/02 09:36:09;;;;;;;5.32;2.25;;;12.00;99.90;;;;;;5112727;28;20561;-54
2022/01/02 09:38:35;;;;;;;4.00;2.60;;;12.10;99.90;;;;;;5112695;28;20202;-57
2022/01/02 09:41:01;;;;;;;5.57;2.80;;;12.20;99.90;;;;;;5112605;28;20545;-54
2022/01/02 09:43:27;;;;;;;5.88;2.42;;;12.30;99.90;;;;;;5112834;28;20172;-61
2022/01/02 09:45:53;;;;;;;6.22;2.60;;;12.20;99.90;;;;;;5113029;28;20234;-54
2022/01/02 09:48:19;;;;;;;7.32;2.97;;;12.30;99.90;;;;;;5112492;28;20517;-58
2022/01/02 09:50:47;;;;;;;4.93;2.45;;;12.30;99.90;;;;;;5112696;28;20206;-59
2022/01/02 09:53:13;;;;;;;5.35;2.25;;;12.50;99.90;;;;;;5112569;28;20180;-58
2022/01/02 09:55:39;;;;;;;6.60;2.60;;;12.60;99.90;;;;;;5112442;28;20225;-59
2022/01/02 09:58:10;;;;;;;9.13;3.17;;;12.60;99.90;;;;;;5112314;28;20627;-59
2022/01/02 10:00:37;;;;;;;5.63;2.70;;;12.60;99.90;;;;;;5112329;28;20172;-57
2022/01/02 10:03:10;;;;;;;9.30;3.55;;;12.70;99.90;;;;;;5112346;28;20311;-55
2022/01/02 10:05:57;;;;;;;7.18;2.97;;;12.70;99.90;;;;;;5111951;28;20218;-58
2022/01/02 10:08:25;;;;;;;6.40;3.13;;;12.70;99.90;;;;;;5112270;28;20179;-53
2022/01/02 10:11:16;;;;;;;5.25;2.33;;;12.80;99.90;;;;;;5111818;28;20216;-58
2022/01/02 10:13:52;;;;;;;7.18;2.83;;;12.80;99.90;;;;;;5112109;28;20160;-51
2022/01/02 10:16:33;;;;;;;4.10;1.98;;;13.00;99.90;;;;;;5093811;28;20179;-49
2022/01/02 10:19:28;;;;;;;4.85;2.40;;;13.20;99.90;;;;;;5118440;27;20565;-57
2022/01/02 10:22:02;;;;;;;4.20;2.20;;;13.30;99.90;;;;;;5112320;28;20579;-53
2022/01/02 10:24:31;;;;;;;5.38;2.70;;;13.40;99.90;;;;;;5112010;28;20564;-48
2022/01/02 10:27:16;;;;;;;7.90;2.42;;;13.50;99.90;;;;;;5111763;28;20200;-54
2022/01/02 10:29:41;;;;;;;4.68;2.30;;;13.80;99.90;;;;;;5111744;28;20215;-49
2022/01/02 10:32:26;;;;;;;4.90;2.55;;;13.90;99.90;;;;;;5093147;28;20164;-50
2022/01/02 10:34:53;;;;;;;6.88;2.90;;;14.00;99.90;;;;;;5092663;28;20535;-50
2022/01/02 10:37:26;;;;;;;5.90;2.60;;;14.00;99.90;;;;;;5111620;28;20171;-52
2022/01/02 10:39:52;;;;;;;5.13;2.88;;;14.00;99.90;;;;;;5111841;28;20165;-62
2022/01/02 10:42:19;;;;;;;4.72;1.92;;;14.00;99.90;;;;;;5111333;28;20666;-56
2022/01/02 10:44:45;;;;;;;3.55;2.35;;;13.90;99.90;;;;;;5111706;28;20592;-52
2022/01/02 10:47:15;;;;;;;5.53;2.55;;;13.90;99.90;;;;;;5111138;28;20563;-50
2022/01/02 10:50:05;;;;;;;4.75;2.60;;;13.80;99.90;;;;;;5111287;28;20164;-52
2022/01/02 10:52:37;;;;;;;5.75;2.88;;;13.80;99.90;;;;;;5111253;28;20176;-55
2022/01/02 10:55:15;;;;;;;5.55;2.47;;;13.80;99.90;;;;;;5111132;28;20157;-52
2022/01/02 10:57:46;;;;;;;6.13;2.70;;;13.80;99.90;;;;;;5111257;28;20247;-58
2022/01/02 11:00:12;;;;;;;5.05;2.97;;;13.70;99.90;;;;;;5111023;28;20243;-56
2022/01/02 11:02:39;;;;;;;6.30;2.40;;;13.70;99.90;;;;;;5111056;28;20693;-52
2022/01/02 11:05:08;;;;;;;2.65;2.30;;;13.60;99.90;;;;;;5093006;28;20177;-52
2022/01/02 11:07:44;;;;;;;4.65;2.60;;;13.70;99.90;;;;;;5111307;28;20553;-52
2022/01/02 11:10:13;;;;;;;6.85;3.22;;;13.70;99.90;;;;;;5111549;28;20161;-60
2022/01/02 11:12:41;;;;;;;4.68;3.20;;;13.70;99.90;;;;;;5111192;28;20759;-54
2022/01/02 11:15:08;;;;;;;7.93;3.17;;;13.70;99.90;;;;;;5111326;28;20217;-55
2022/01/02 11:17:37;;;;;;;5.80;3.00;;;13.70;99.90;;;;;;5111048;28;20209;-54
2022/01/02 11:20:09;;;;;;;7.45;3.33;;;13.60;99.90;;;;;;5111059;28;20202;-47
2022/01/02 11:23:14;;;;;;;3.83;2.40;;;13.60;99.90;;;;;;5111218;28;20165;-48
2022/01/02 11:25:59;;;;;;;8.75;2.80;;;13.60;99.90;;;;;;5072716;28;20190;-50
2022/01/02 11:28:45;;;;;;;4.75;2.45;;;13.50;99.90;;;;;;5111405;28;20687;-55
2022/01/02 11:31:11;;;;;;;5.53;2.80;;;13.50;99.90;;;;;;5111222;28;20343;-50
2022/01/02 11:33:41;;;;;;;5.50;3.15;;;13.40;99.90;;;;;;5111334;28;20640;-53
2022/01/02 11:36:33;;;;;;;5.75;2.33;;;13.40;99.90;;;;;;5110924;28;20168;-51
2022/01/02 11:39:03;;;;;;;4.40;2.72;;;13.40;99.90;;;;;;5110740;28;20179;-50
2022/01/02 11:41:47;;;;;;;7.05;2.85;;;13.40;99.90;;;;;;5110367;28;20200;-51
2022/01/02 11:44:40;;;;;;;5.45;2.60;;;13.30;99.90;;;;;;5110833;28;20173;-54
2022/01/02 11:47:05;;;;;;;5.57;3.03;;;13.30;99.90;;;;;;5110817;28;20223;-52
2022/01/02 11:49:38;;;;;;;6.45;2.50;;;13.30;99.90;;;;;;5114583;28;20157;-54
2022/01/02 11:52:22;;;;;;;6.78;2.70;;;13.30;99.90;;;;;;5114628;28;20229;-49
2022/01/02 11:54:53;;;;;;;6.15;2.40;;;13.30;99.90;;;;;;5114823;28;20646;-59
2022/01/02 11:57:22;;;;;;;4.10;2.60;;;13.30;99.90;;;;;;5115420;28;20190;-50
2022/01/02 11:59:48;;;;;;;4.80;2.05;;;13.30;99.90;;;;;;5096477;28;21288;-53
2022/01/02 12:02:13;;;;;;;5.75;2.70;;;13.30;99.90;;;;;;5114751;28;20750;-65
2022/01/02 12:07:35;;;;;;;3.88;2.88;;;13.20;99.90;;;;;;5115171;28;20212;-66
2022/01/02 12:10:28;;;;;;;6.93;2.65;;;13.20;99.90;;;;;;5114550;28;20164;-66
2022/01/02 12:12:59;;;;;;;5.90;3.05;;;13.10;99.90;;;;;;5110738;28;20540;-67
2022/01/02 12:15:31;;;;;;;4.97;2.40;;;13.10;99.90;;;;;;5115034;28;20574;-66
2022/01/02 12:18:07;;;;;;;4.07;2.03;;;13.10;99.90;;;;;;5114243;28;20160;-66
2022/01/02 12:20:56;;;;;;;6.65;2.33;;;13.10;99.90;;;;;;5114581;28;20164;-67
2022/01/02 12:23:33;;;;;;;8.23;2.80;;;13.10;99.90;;;;;;5114318;28;20568;-66
2022/01/02 12:26:03;;;;;;;7.25;3.08;;;13.10;99.90;;;;;;5114240;28;20569;-63
2022/01/02 12:28:36;;;;;;;5.32;2.90;;;13.10;99.90;;;;;;5096232;28;20169;-66
2022/01/02 12:31:03;;;;;;;4.10;2.85;;;13.10;99.90;;;;;;5113942;28;20213;-66
2022/01/02 12:33:30;;;;;;;3.55;2.33;;;13.10;99.90;;;;;;5113942;28;20168;-60
2022/01/02 12:35:56;;;;;;;9.13;3.42;;;13.20;99.90;;;;;;5114519;28;20217;-66
2022/01/02 12:38:23;;;;;;;7.70;4.60;;;13.20;99.90;;;;;;5113937;28;20180;-66
2022/01/02 12:40:53;;;;;;;6.53;2.90;;;13.20;99.90;;;;;;5114037;28;20160;-65
2022/01/02 12:43:25;;;;;;;4.90;2.97;;;13.20;99.90;;;;;;5114124;28;20222;-66
2022/01/02 12:45:54;;;;;;;5.55;3.10;;;13.20;99.90;;;;;;5114037;28;20200;-65
2022/01/02 12:48:35;;;;;;;5.60;2.75;;;13.20;99.90;;;;;;5113890;28;20160;-66
2022/01/02 12:51:14;;;;;;;4.47;2.67;;;13.20;99.90;;;;;;5113931;28;20253;-65
2022/01/02 12:53:40;;;;;;;5.13;2.95;;;13.20;99.90;;;;;;5102721;28;20243;-63
2022/01/02 12:56:05;;;;;;;5.93;2.72;;;13.20;99.90;;;;;;5098810;28;20739;-63
2022/01/02 12:58:33;;;;;;;5.13;3.05;;;13.20;99.90;;;;;;5092712;28;20221;-65
2022/01/02 13:01:06;;;;;;;7.78;3.13;;;13.10;99.90;;;;;;5093379;28;20238;-52